Terminal Aerodrome Forecast
Issued by NWS

Home | Current Version | Previous Version | Text Only | Print | Product List | Glossary On
Versions: 1 2 3 4 5 6 7 8 9 10 11 12 13 14 15 16 17 18 19 20 21 22 23 24 25 26 27 28 29 30 31 32 33
000
FTUS41 KCTP 181201 RRA
TAFBFD
TAF
KBFD 181201Z 1812/1912 VRB04KT 3SM BR OVC004
     FM181400 21005KT 2SM BR BKN004 OVC012
      TEMPO 1816/1817 4SM BR SCT004 OVC015
     FM181700 23008G15KT 4SM BR OVC015
     FM190000 25010KT 3SM BR VCSH OVC006=

USA.gov is the U.S. government's official web portal to all federal, state and local government web resources and services.